sensor_id;sensor_type;location;lat;lon;timestamp;P1;durP1;ratioP1;P2;durP2;ratioP2
6207;SDS011;3137;51.550;7.060;2023-05-10T00:00:07;13.90;;;7.20;;
6207;SDS011;3137;51.550;7.060;2023-05-10T00:02:42;8.80;;;8.27;;
6207;SDS011;3137;51.550;7.060;2023-05-10T00:05:08;10.27;;;7.17;;
6207;SDS011;3137;51.550;7.060;2023-05-10T00:07:35;8.57;;;7.73;;
6207;SDS011;3137;51.550;7.060;2023-05-10T00:10:01;7.47;;;6.77;;
6207;SDS011;3137;51.550;7.060;2023-05-10T00:12:28;9.37;;;7.50;;
6207;SDS011;3137;51.550;7.060;2023-05-10T00:14:54;7.70;;;7.00;;
6207;SDS011;3137;51.550;7.060;2023-05-10T00:17:20;7.13;;;6.30;;
6207;SDS011;3137;51.550;7.060;2023-05-10T00:19:47;17.50;;;6.83;;
6207;SDS011;3137;51.550;7.060;2023-05-10T00:22:14;6.87;;;6.37;;
6207;SDS011;3137;51.550;7.060;2023-05-10T00:24:40;6.70;;;6.20;;
6207;SDS011;3137;51.550;7.060;2023-05-10T00:27:07;6.50;;;6.00;;
6207;SDS011;3137;51.550;7.060;2023-05-10T00:29:33;8.27;;;6.77;;
6207;SDS011;3137;51.550;7.060;2023-05-10T00:32:00;7.93;;;7.20;;
6207;SDS011;3137;51.550;7.060;2023-05-10T00:34:26;7.87;;;7.07;;
6207;SDS011;3137;51.550;7.060;2023-05-10T00:36:53;8.07;;;6.70;;
6207;SDS011;3137;51.550;7.060;2023-05-10T00:39:19;6.80;;;6.30;;
6207;SDS011;3137;51.550;7.060;2023-05-10T00:41:46;10.07;;;7.40;;
6207;SDS011;3137;51.550;7.060;2023-05-10T00:44:12;9.63;;;7.67;;
6207;SDS011;3137;51.550;7.060;2023-05-10T00:46:39;9.63;;;7.00;;
6207;SDS011;3137;51.550;7.060;2023-05-10T00:49:05;8.97;;;8.07;;
6207;SDS011;3137;51.550;7.060;2023-05-10T00:51:32;12.27;;;8.37;;
6207;SDS011;3137;51.550;7.060;2023-05-10T00:53:59;10.43;;;8.23;;
6207;SDS011;3137;51.550;7.060;2023-05-10T00:56:25;9.43;;;8.63;;
6207;SDS011;3137;51.550;7.060;2023-05-10T00:58:53;12.53;;;9.67;;
6207;SDS011;3137;51.550;7.060;2023-05-10T01:01:19;8.37;;;7.63;;
6207;SDS011;3137;51.550;7.060;2023-05-10T01:03:46;9.37;;;7.77;;
6207;SDS011;3137;51.550;7.060;2023-05-10T01:06:14;6.90;;;6.60;;
6207;SDS011;3137;51.550;7.060;2023-05-10T01:08:40;7.10;;;6.60;;
6207;SDS011;3137;51.550;7.060;2023-05-10T01:11:07;6.53;;;6.13;;
6207;SDS011;3137;51.550;7.060;2023-05-10T01:13:37;5.93;;;5.80;;
6207;SDS011;3137;51.550;7.060;2023-05-10T01:16:07;4.50;;;4.40;;
6207;SDS011;3137;51.550;7.060;2023-05-10T01:18:43;11.17;;;3.90;;
6207;SDS011;3137;51.550;7.060;2023-05-10T01:23:56;4.10;;;3.73;;
6207;SDS011;3137;51.550;7.060;2023-05-10T01:35:32;6.87;;;6.47;;
6207;SDS011;3137;51.550;7.060;2023-05-10T01:38:06;7.00;;;6.70;;
6207;SDS011;3137;51.550;7.060;2023-05-10T01:40:46;7.70;;;7.27;;
6207;SDS011;3137;51.550;7.060;2023-05-10T01:43:22;9.37;;;8.60;;
6207;SDS011;3137;51.550;7.060;2023-05-10T01:45:57;20.00;;;9.73;;
6207;SDS011;3137;51.550;7.060;2023-05-10T01:48:37;12.47;;;8.97;;
6207;SDS011;3137;51.550;7.060;2023-05-10T01:51:14;10.83;;;9.23;;
6207;SDS011;3137;51.550;7.060;2023-05-10T01:53:45;9.67;;;8.77;;
6207;SDS011;3137;51.550;7.060;2023-05-10T01:56:15;11.20;;;9.00;;
6207;SDS011;3137;51.550;7.060;2023-05-10T01:58:43;10.63;;;9.40;;
6207;SDS011;3137;51.550;7.060;2023-05-10T02:01:13;9.50;;;8.80;;
6207;SDS011;3137;51.550;7.060;2023-05-10T02:03:41;10.33;;;9.43;;
6207;SDS011;3137;51.550;7.060;2023-05-10T02:06:10;13.53;;;9.40;;
6207;SDS011;3137;51.550;7.060;2023-05-10T02:08:38;10.43;;;8.90;;
6207;SDS011;3137;51.550;7.060;2023-05-10T02:11:07;12.03;;;9.73;;
6207;SDS011;3137;51.550;7.060;2023-05-10T02:13:35;14.43;;;8.73;;
6207;SDS011;3137;51.550;7.060;2023-05-10T02:16:03;10.97;;;9.33;;
6207;SDS011;3137;51.550;7.060;2023-05-10T02:18:31;12.80;;;9.67;;
6207;SDS011;3137;51.550;7.060;2023-05-10T02:21:01;10.77;;;9.33;;
6207;SDS011;3137;51.550;7.060;2023-05-10T02:23:29;10.23;;;9.13;;
6207;SDS011;3137;51.550;7.060;2023-05-10T02:25:56;10.47;;;9.43;;
6207;SDS011;3137;51.550;7.060;2023-05-10T02:28:24;13.37;;;10.00;;
6207;SDS011;3137;51.550;7.060;2023-05-10T02:30:52;10.87;;;9.37;;
6207;SDS011;3137;51.550;7.060;2023-05-10T02:33:20;11.57;;;10.10;;
6207;SDS011;3137;51.550;7.060;2023-05-10T02:35:48;14.57;;;9.37;;
6207;SDS011;3137;51.550;7.060;2023-05-10T02:38:16;16.17;;;9.50;;
6207;SDS011;3137;51.550;7.060;2023-05-10T02:40:44;11.13;;;9.77;;
6207;SDS011;3137;51.550;7.060;2023-05-10T02:43:14;11.33;;;10.13;;
6207;SDS011;3137;51.550;7.060;2023-05-10T02:45:43;10.53;;;9.43;;
6207;SDS011;3137;51.550;7.060;2023-05-10T02:48:13;14.57;;;10.47;;
6207;SDS011;3137;51.550;7.060;2023-05-10T02:50:41;17.57;;;10.60;;
6207;SDS011;3137;51.550;7.060;2023-05-10T02:53:11;11.07;;;9.53;;
6207;SDS011;3137;51.550;7.060;2023-05-10T02:55:42;16.87;;;10.73;;
6207;SDS011;3137;51.550;7.060;2023-05-10T02:58:11;17.30;;;10.40;;
6207;SDS011;3137;51.550;7.060;2023-05-10T03:00:37;11.77;;;9.93;;
6207;SDS011;3137;51.550;7.060;2023-05-10T03:03:04;19.20;;;10.20;;
6207;SDS011;3137;51.550;7.060;2023-05-10T03:05:30;15.10;;;10.37;;
6207;SDS011;3137;51.550;7.060;2023-05-10T03:07:59;11.87;;;9.60;;
6207;SDS011;3137;51.550;7.060;2023-05-10T03:10:30;15.13;;;9.80;;
6207;SDS011;3137;51.550;7.060;2023-05-10T03:18:37;16.57;;;10.03;;
6207;SDS011;3137;51.550;7.060;2023-05-10T03:21:11;11.70;;;9.23;;
6207;SDS011;3137;51.550;7.060;2023-05-10T03:26:09;16.63;;;10.57;;
6207;SDS011;3137;51.550;7.060;2023-05-10T03:28:36;17.67;;;10.00;;
6207;SDS011;3137;51.550;7.060;2023-05-10T03:31:04;18.23;;;10.83;;
6207;SDS011;3137;51.550;7.060;2023-05-10T03:33:32;17.20;;;10.70;;
6207;SDS011;3137;51.550;7.060;2023-05-10T03:35:59;20.73;;;11.57;;
6207;SDS011;3137;51.550;7.060;2023-05-10T03:38:26;22.17;;;12.57;;
6207;SDS011;3137;51.550;7.060;2023-05-10T03:40:55;23.70;;;12.37;;
6207;SDS011;3137;51.550;7.060;2023-05-10T03:43:22;46.83;;;15.00;;
6207;SDS011;3137;51.550;7.060;2023-05-10T03:45:48;34.10;;;16.53;;
6207;SDS011;3137;51.550;7.060;2023-05-10T03:48:14;36.63;;;17.70;;
6207;SDS011;3137;51.550;7.060;2023-05-10T03:50:41;39.93;;;18.30;;
6207;SDS011;3137;51.550;7.060;2023-05-10T03:53:08;45.27;;;18.60;;
6207;SDS011;3137;51.550;7.060;2023-05-10T03:55:35;47.67;;;19.50;;
6207;SDS011;3137;51.550;7.060;2023-05-10T03:58:02;47.33;;;19.37;;
6207;SDS011;3137;51.550;7.060;2023-05-10T04:00:29;50.40;;;19.17;;
6207;SDS011;3137;51.550;7.060;2023-05-10T04:02:56;52.57;;;20.27;;
6207;SDS011;3137;51.550;7.060;2023-05-10T04:05:22;56.17;;;23.73;;
6207;SDS011;3137;51.550;7.060;2023-05-10T04:07:51;53.03;;;22.27;;
6207;SDS011;3137;51.550;7.060;2023-05-10T04:10:17;51.00;;;23.33;;
6207;SDS011;3137;51.550;7.060;2023-05-10T04:12:44;60.73;;;24.30;;
6207;SDS011;3137;51.550;7.060;2023-05-10T04:15:11;61.23;;;23.53;;
6207;SDS011;3137;51.550;7.060;2023-05-10T04:17:37;57.17;;;24.03;;
6207;SDS011;3137;51.550;7.060;2023-05-10T04:20:04;55.43;;;22.40;;
6207;SDS011;3137;51.550;7.060;2023-05-10T04:22:31;64.37;;;23.47;;
6207;SDS011;3137;51.550;7.060;2023-05-10T04:24:58;62.80;;;23.73;;
6207;SDS011;3137;51.550;7.060;2023-05-10T04:27:24;54.00;;;23.03;;
6207;SDS011;3137;51.550;7.060;2023-05-10T04:29:51;54.03;;;22.67;;
6207;SDS011;3137;51.550;7.060;2023-05-10T04:32:17;63.93;;;24.47;;
6207;SDS011;3137;51.550;7.060;2023-05-10T04:34:43;53.87;;;22.73;;
6207;SDS011;3137;51.550;7.060;2023-05-10T04:37:10;62.60;;;23.33;;
6207;SDS011;3137;51.550;7.060;2023-05-10T04:39:36;61.40;;;24.20;;
6207;SDS011;3137;51.550;7.060;2023-05-10T04:42:06;62.90;;;23.47;;
6207;SDS011;3137;51.550;7.060;2023-05-10T04:44:33;63.23;;;24.13;;
6207;SDS011;3137;51.550;7.060;2023-05-10T04:46:59;63.00;;;23.60;;
6207;SDS011;3137;51.550;7.060;2023-05-10T04:49:26;62.10;;;24.50;;
6207;SDS011;3137;51.550;7.060;2023-05-10T04:51:52;63.47;;;24.73;;
6207;SDS011;3137;51.550;7.060;2023-05-10T04:54:19;67.20;;;25.93;;
6207;SDS011;3137;51.550;7.060;2023-05-10T04:56:45;59.13;;;24.83;;
6207;SDS011;3137;51.550;7.060;2023-05-10T04:59:12;64.20;;;24.47;;
6207;SDS011;3137;51.550;7.060;2023-05-10T05:01:38;74.83;;;25.20;;
6207;SDS011;3137;51.550;7.060;2023-05-10T05:04:05;72.60;;;25.17;;
6207;SDS011;3137;51.550;7.060;2023-05-10T05:06:32;67.97;;;25.23;;
6207;SDS011;3137;51.550;7.060;2023-05-10T05:08:59;76.77;;;27.73;;
6207;SDS011;3137;51.550;7.060;2023-05-10T05:11:25;78.53;;;27.67;;
6207;SDS011;3137;51.550;7.060;2023-05-10T05:13:52;66.57;;;25.93;;
6207;SDS011;3137;51.550;7.060;2023-05-10T05:16:18;73.23;;;26.60;;
6207;SDS011;3137;51.550;7.060;2023-05-10T05:18:45;65.90;;;26.33;;
6207;SDS011;3137;51.550;7.060;2023-05-10T05:21:14;72.60;;;26.47;;
6207;SDS011;3137;51.550;7.060;2023-05-10T05:23:42;69.90;;;26.93;;
6207;SDS011;3137;51.550;7.060;2023-05-10T05:26:09;75.80;;;28.37;;
6207;SDS011;3137;51.550;7.060;2023-05-10T05:28:36;72.17;;;27.80;;
6207;SDS011;3137;51.550;7.060;2023-05-10T05:31:06;72.40;;;26.70;;
6207;SDS011;3137;51.550;7.060;2023-05-10T05:33:34;68.80;;;26.13;;
6207;SDS011;3137;51.550;7.060;2023-05-10T05:36:03;73.60;;;26.63;;
6207;SDS011;3137;51.550;7.060;2023-05-10T05:38:31;71.37;;;27.20;;
6207;SDS011;3137;51.550;7.060;2023-05-10T05:40:58;75.30;;;28.17;;
6207;SDS011;3137;51.550;7.060;2023-05-10T05:43:24;79.00;;;26.83;;
6207;SDS011;3137;51.550;7.060;2023-05-10T05:45:54;69.67;;;27.00;;
6207;SDS011;3137;51.550;7.060;2023-05-10T05:48:21;74.63;;;27.00;;
6207;SDS011;3137;51.550;7.060;2023-05-10T05:50:47;66.67;;;26.03;;
6207;SDS011;3137;51.550;7.060;2023-05-10T05:53:14;63.87;;;26.30;;
6207;SDS011;3137;51.550;7.060;2023-05-10T05:55:40;71.07;;;26.30;;
6207;SDS011;3137;51.550;7.060;2023-05-10T05:58:17;64.90;;;26.03;;
6207;SDS011;3137;51.550;7.060;2023-05-10T06:00:44;69.00;;;26.77;;
6207;SDS011;3137;51.550;7.060;2023-05-10T06:03:11;66.93;;;26.50;;
6207;SDS011;3137;51.550;7.060;2023-05-10T06:05:37;66.27;;;26.90;;
6207;SDS011;3137;51.550;7.060;2023-05-10T06:08:04;64.93;;;26.67;;
6207;SDS011;3137;51.550;7.060;2023-05-10T06:10:30;68.17;;;26.23;;
6207;SDS011;3137;51.550;7.060;2023-05-10T06:12:57;66.73;;;26.40;;
6207;SDS011;3137;51.550;7.060;2023-05-10T06:15:23;71.23;;;26.03;;
6207;SDS011;3137;51.550;7.060;2023-05-10T06:17:50;62.60;;;26.10;;
6207;SDS011;3137;51.550;7.060;2023-05-10T06:20:17;65.93;;;26.10;;
6207;SDS011;3137;51.550;7.060;2023-05-10T06:22:43;69.03;;;27.60;;
6207;SDS011;3137;51.550;7.060;2023-05-10T06:25:10;73.10;;;26.47;;
6207;SDS011;3137;51.550;7.060;2023-05-10T06:27:37;67.70;;;24.57;;
6207;SDS011;3137;51.550;7.060;2023-05-10T06:30:04;71.30;;;26.10;;
6207;SDS011;3137;51.550;7.060;2023-05-10T06:32:38;71.37;;;25.50;;
6207;SDS011;3137;51.550;7.060;2023-05-10T06:35:05;64.97;;;26.13;;
6207;SDS011;3137;51.550;7.060;2023-05-10T06:37:32;69.70;;;26.33;;
6207;SDS011;3137;51.550;7.060;2023-05-10T06:39:58;59.53;;;24.37;;
6207;SDS011;3137;51.550;7.060;2023-05-10T06:42:25;64.03;;;25.97;;
6207;SDS011;3137;51.550;7.060;2023-05-10T06:44:53;75.30;;;24.87;;
6207;SDS011;3137;51.550;7.060;2023-05-10T06:47:19;66.93;;;25.70;;
6207;SDS011;3137;51.550;7.060;2023-05-10T06:49:45;73.53;;;25.93;;
6207;SDS011;3137;51.550;7.060;2023-05-10T06:52:12;67.23;;;26.93;;
6207;SDS011;3137;51.550;7.060;2023-05-10T06:54:38;72.93;;;26.80;;
6207;SDS011;3137;51.550;7.060;2023-05-10T06:57:04;60.93;;;26.00;;
6207;SDS011;3137;51.550;7.060;2023-05-10T06:59:44;65.90;;;27.13;;
6207;SDS011;3137;51.550;7.060;2023-05-10T07:02:11;61.87;;;26.23;;
6207;SDS011;3137;51.550;7.060;2023-05-10T07:04:37;76.17;;;29.00;;
6207;SDS011;3137;51.550;7.060;2023-05-10T07:07:04;64.30;;;28.17;;
6207;SDS011;3137;51.550;7.060;2023-05-10T07:09:31;74.53;;;28.73;;
6207;SDS011;3137;51.550;7.060;2023-05-10T07:11:57;75.97;;;28.80;;
6207;SDS011;3137;51.550;7.060;2023-05-10T07:14:23;72.93;;;27.70;;
6207;SDS011;3137;51.550;7.060;2023-05-10T07:16:50;72.60;;;27.93;;
6207;SDS011;3137;51.550;7.060;2023-05-10T07:19:16;64.77;;;28.13;;
6207;SDS011;3137;51.550;7.060;2023-05-10T07:21:42;70.83;;;29.13;;
6207;SDS011;3137;51.550;7.060;2023-05-10T07:24:09;82.97;;;29.00;;
6207;SDS011;3137;51.550;7.060;2023-05-10T07:26:35;72.63;;;28.80;;
6207;SDS011;3137;51.550;7.060;2023-05-10T07:29:02;73.07;;;26.50;;
6207;SDS011;3137;51.550;7.060;2023-05-10T07:31:29;78.53;;;28.07;;
6207;SDS011;3137;51.550;7.060;2023-05-10T07:33:55;79.30;;;28.07;;
6207;SDS011;3137;51.550;7.060;2023-05-10T07:36:21;61.80;;;26.33;;
6207;SDS011;3137;51.550;7.060;2023-05-10T07:38:48;64.80;;;25.70;;
6207;SDS011;3137;51.550;7.060;2023-05-10T07:41:15;68.30;;;25.97;;
6207;SDS011;3137;51.550;7.060;2023-05-10T07:43:41;68.07;;;24.30;;
6207;SDS011;3137;51.550;7.060;2023-05-10T07:46:08;65.13;;;25.53;;
6207;SDS011;3137;51.550;7.060;2023-05-10T07:48:36;67.87;;;25.27;;
6207;SDS011;3137;51.550;7.060;2023-05-10T07:51:03;67.83;;;27.43;;
6207;SDS011;3137;51.550;7.060;2023-05-10T07:53:30;70.73;;;28.20;;
6207;SDS011;3137;51.550;7.060;2023-05-10T07:55:57;68.07;;;26.30;;
6207;SDS011;3137;51.550;7.060;2023-05-10T07:58:24;74.80;;;27.90;;
6207;SDS011;3137;51.550;7.060;2023-05-10T08:00:51;72.07;;;26.63;;
6207;SDS011;3137;51.550;7.060;2023-05-10T08:03:17;73.70;;;26.57;;
6207;SDS011;3137;51.550;7.060;2023-05-10T08:05:44;67.17;;;28.17;;
6207;SDS011;3137;51.550;7.060;2023-05-10T08:08:11;72.43;;;28.93;;
6207;SDS011;3137;51.550;7.060;2023-05-10T08:10:37;73.50;;;27.27;;
6207;SDS011;3137;51.550;7.060;2023-05-10T08:13:03;82.83;;;28.37;;
6207;SDS011;3137;51.550;7.060;2023-05-10T08:15:30;71.17;;;27.00;;
6207;SDS011;3137;51.550;7.060;2023-05-10T08:17:56;69.30;;;27.63;;
6207;SDS011;3137;51.550;7.060;2023-05-10T08:20:23;72.17;;;29.80;;
6207;SDS011;3137;51.550;7.060;2023-05-10T08:22:49;74.87;;;29.70;;
6207;SDS011;3137;51.550;7.060;2023-05-10T08:25:17;84.17;;;26.37;;
6207;SDS011;3137;51.550;7.060;2023-05-10T08:27:44;74.23;;;29.10;;
6207;SDS011;3137;51.550;7.060;2023-05-10T08:30:10;69.73;;;29.13;;
6207;SDS011;3137;51.550;7.060;2023-05-10T08:32:38;68.43;;;27.47;;
6207;SDS011;3137;51.550;7.060;2023-05-10T08:35:04;69.03;;;29.77;;
6207;SDS011;3137;51.550;7.060;2023-05-10T08:37:31;64.83;;;26.17;;
6207;SDS011;3137;51.550;7.060;2023-05-10T08:39:59;59.30;;;24.73;;
6207;SDS011;3137;51.550;7.060;2023-05-10T08:42:25;51.73;;;24.57;;
6207;SDS011;3137;51.550;7.060;2023-05-10T08:44:56;46.33;;;22.70;;
6207;SDS011;3137;51.550;7.060;2023-05-10T08:47:23;56.40;;;22.63;;
6207;SDS011;3137;51.550;7.060;2023-05-10T08:49:51;54.90;;;21.33;;
6207;SDS011;3137;51.550;7.060;2023-05-10T08:52:18;43.47;;;20.97;;
6207;SDS011;3137;51.550;7.060;2023-05-10T08:54:45;48.13;;;21.23;;
6207;SDS011;3137;51.550;7.060;2023-05-10T08:57:12;48.20;;;21.07;;
6207;SDS011;3137;51.550;7.060;2023-05-10T08:59:39;52.13;;;21.03;;
6207;SDS011;3137;51.550;7.060;2023-05-10T09:02:05;49.37;;;20.63;;
6207;SDS011;3137;51.550;7.060;2023-05-10T09:04:32;43.13;;;21.17;;
6207;SDS011;3137;51.550;7.060;2023-05-10T09:06:59;51.07;;;23.40;;
6207;SDS011;3137;51.550;7.060;2023-05-10T09:09:27;48.03;;;22.47;;
6207;SDS011;3137;51.550;7.060;2023-05-10T09:11:54;54.83;;;23.60;;
6207;SDS011;3137;51.550;7.060;2023-05-10T09:14:20;58.67;;;23.60;;
6207;SDS011;3137;51.550;7.060;2023-05-10T09:16:51;49.40;;;23.77;;
6207;SDS011;3137;51.550;7.060;2023-05-10T09:19:19;41.60;;;20.27;;
6207;SDS011;3137;51.550;7.060;2023-05-10T09:21:46;37.50;;;19.07;;
6207;SDS011;3137;51.550;7.060;2023-05-10T09:24:12;36.93;;;16.90;;
6207;SDS011;3137;51.550;7.060;2023-05-10T09:26:45;35.47;;;17.37;;
6207;SDS011;3137;51.550;7.060;2023-05-10T09:29:14;44.63;;;19.50;;
6207;SDS011;3137;51.550;7.060;2023-05-10T09:31:47;38.27;;;19.73;;
6207;SDS011;3137;51.550;7.060;2023-05-10T09:34:17;50.23;;;22.00;;
6207;SDS011;3137;51.550;7.060;2023-05-10T09:36:55;37.53;;;20.53;;
6207;SDS011;3137;51.550;7.060;2023-05-10T09:39:32;41.40;;;22.00;;
6207;SDS011;3137;51.550;7.060;2023-05-10T09:42:01;45.00;;;20.70;;
6207;SDS011;3137;51.550;7.060;2023-05-10T09:44:30;44.03;;;19.47;;
6207;SDS011;3137;51.550;7.060;2023-05-10T09:46:58;33.97;;;17.80;;
6207;SDS011;3137;51.550;7.060;2023-05-10T09:49:25;37.13;;;19.77;;
6207;SDS011;3137;51.550;7.060;2023-05-10T09:54:27;38.90;;;17.83;;
6207;SDS011;3137;51.550;7.060;2023-05-10T09:56:54;38.37;;;17.53;;
6207;SDS011;3137;51.550;7.060;2023-05-10T09:59:20;32.47;;;16.23;;
6207;SDS011;3137;51.550;7.060;2023-05-10T10:01:50;55.20;;;18.80;;
6207;SDS011;3137;51.550;7.060;2023-05-10T10:04:18;40.40;;;18.53;;
6207;SDS011;3137;51.550;7.060;2023-05-10T10:06:46;38.20;;;18.73;;
6207;SDS011;3137;51.550;7.060;2023-05-10T10:09:13;33.37;;;17.50;;
6207;SDS011;3137;51.550;7.060;2023-05-10T10:11:40;48.97;;;19.93;;
6207;SDS011;3137;51.550;7.060;2023-05-10T10:14:07;35.80;;;18.43;;
6207;SDS011;3137;51.550;7.060;2023-05-10T10:16:34;40.80;;;18.53;;
6207;SDS011;3137;51.550;7.060;2023-05-10T10:19:01;32.90;;;16.53;;
6207;SDS011;3137;51.550;7.060;2023-05-10T10:21:28;34.63;;;16.80;;
6207;SDS011;3137;51.550;7.060;2023-05-10T10:23:54;29.13;;;16.37;;
6207;SDS011;3137;51.550;7.060;2023-05-10T10:26:21;29.87;;;15.13;;
6207;SDS011;3137;51.550;7.060;2023-05-10T10:28:57;30.03;;;16.77;;
6207;SDS011;3137;51.550;7.060;2023-05-10T10:31:57;29.63;;;15.43;;
6207;SDS011;3137;51.550;7.060;2023-05-10T10:34:30;27.00;;;15.23;;
6207;SDS011;3137;51.550;7.060;2023-05-10T10:36:57;20.70;;;14.60;;
6207;SDS011;3137;51.550;7.060;2023-05-10T10:39:29;30.63;;;15.23;;
6207;SDS011;3137;51.550;7.060;2023-05-10T10:41:57;30.93;;;15.70;;
6207;SDS011;3137;51.550;7.060;2023-05-10T10:47:01;29.33;;;15.70;;
6207;SDS011;3137;51.550;7.060;2023-05-10T10:57:25;39.17;;;20.93;;
6207;SDS011;3137;51.550;7.060;2023-05-10T11:00:38;38.27;;;21.93;;
6207;SDS011;3137;51.550;7.060;2023-05-10T11:03:05;42.97;;;18.80;;
6207;SDS011;3137;51.550;7.060;2023-05-10T11:05:43;40.73;;;19.67;;
6207;SDS011;3137;51.550;7.060;2023-05-10T11:13:34;34.67;;;15.90;;
6207;SDS011;3137;51.550;7.060;2023-05-10T11:16:12;28.37;;;15.33;;
6207;SDS011;3137;51.550;7.060;2023-05-10T11:18:41;24.20;;;15.90;;
6207;SDS011;3137;51.550;7.060;2023-05-10T11:21:45;23.43;;;13.77;;
6207;SDS011;3137;51.550;7.060;2023-05-10T11:24:18;26.97;;;15.70;;
6207;SDS011;3137;51.550;7.060;2023-05-10T11:26:49;33.67;;;17.17;;
6207;SDS011;3137;51.550;7.060;2023-05-10T11:29:16;35.97;;;17.80;;
6207;SDS011;3137;51.550;7.060;2023-05-10T11:31:43;37.53;;;19.80;;
6207;SDS011;3137;51.550;7.060;2023-05-10T11:34:11;35.33;;;19.10;;
6207;SDS011;3137;51.550;7.060;2023-05-10T11:36:38;38.67;;;18.23;;
6207;SDS011;3137;51.550;7.060;2023-05-10T11:39:05;34.93;;;14.87;;
6207;SDS011;3137;51.550;7.060;2023-05-10T11:41:32;31.67;;;16.17;;
6207;SDS011;3137;51.550;7.060;2023-05-10T11:43:58;31.23;;;18.07;;
6207;SDS011;3137;51.550;7.060;2023-05-10T11:46:26;24.07;;;16.67;;
6207;SDS011;3137;51.550;7.060;2023-05-10T11:48:55;28.07;;;17.20;;
6207;SDS011;3137;51.550;7.060;2023-05-10T11:51:24;25.77;;;17.13;;
6207;SDS011;3137;51.550;7.060;2023-05-10T11:53:55;28.77;;;17.13;;
6207;SDS011;3137;51.550;7.060;2023-05-10T11:56:22;34.87;;;17.10;;
6207;SDS011;3137;51.550;7.060;2023-05-10T11:58:53;30.83;;;16.43;;
6207;SDS011;3137;51.550;7.060;2023-05-10T12:01:22;34.27;;;17.33;;
6207;SDS011;3137;51.550;7.060;2023-05-10T12:03:50;31.70;;;16.33;;
6207;SDS011;3137;51.550;7.060;2023-05-10T12:06:18;27.50;;;17.40;;
6207;SDS011;3137;51.550;7.060;2023-05-10T12:08:46;18.77;;;12.37;;
6207;SDS011;3137;51.550;7.060;2023-05-10T12:11:13;18.67;;;12.23;;
6207;SDS011;3137;51.550;7.060;2023-05-10T12:13:42;18.40;;;13.23;;
6207;SDS011;3137;51.550;7.060;2023-05-10T12:16:16;29.87;;;17.13;;
6207;SDS011;3137;51.550;7.060;2023-05-10T12:18:44;20.90;;;15.37;;
6207;SDS011;3137;51.550;7.060;2023-05-10T12:21:11;23.27;;;16.37;;
6207;SDS011;3137;51.550;7.060;2023-05-10T12:23:38;28.20;;;17.13;;
6207;SDS011;3137;51.550;7.060;2023-05-10T12:26:05;23.77;;;16.83;;
6207;SDS011;3137;51.550;7.060;2023-05-10T12:28:32;29.73;;;17.27;;
6207;SDS011;3137;51.550;7.060;2023-05-10T12:30:59;28.30;;;18.07;;
6207;SDS011;3137;51.550;7.060;2023-05-10T12:33:26;27.37;;;18.27;;
6207;SDS011;3137;51.550;7.060;2023-05-10T12:35:53;28.30;;;17.77;;
6207;SDS011;3137;51.550;7.060;2023-05-10T12:40:59;33.60;;;18.73;;
6207;SDS011;3137;51.550;7.060;2023-05-10T12:43:27;30.50;;;17.67;;
6207;SDS011;3137;51.550;7.060;2023-05-10T12:45:54;31.10;;;18.10;;
6207;SDS011;3137;51.550;7.060;2023-05-10T12:48:21;26.40;;;17.37;;
6207;SDS011;3137;51.550;7.060;2023-05-10T12:50:47;31.47;;;16.53;;
6207;SDS011;3137;51.550;7.060;2023-05-10T12:53:14;26.10;;;15.97;;
6207;SDS011;3137;51.550;7.060;2023-05-10T12:55:44;31.27;;;17.63;;
6207;SDS011;3137;51.550;7.060;2023-05-10T12:58:10;20.87;;;15.67;;
6207;SDS011;3137;51.550;7.060;2023-05-10T13:00:46;34.80;;;17.63;;
6207;SDS011;3137;51.550;7.060;2023-05-10T13:03:13;36.57;;;17.27;;
6207;SDS011;3137;51.550;7.060;2023-05-10T13:05:39;25.93;;;16.13;;
6207;SDS011;3137;51.550;7.060;2023-05-10T13:08:07;22.10;;;15.13;;
6207;SDS011;3137;51.550;7.060;2023-05-10T13:10:33;22.93;;;16.70;;
6207;SDS011;3137;51.550;7.060;2023-05-10T13:13:00;16.20;;;14.23;;
6207;SDS011;3137;51.550;7.060;2023-05-10T13:15:26;17.30;;;9.90;;
6207;SDS011;3137;51.550;7.060;2023-05-10T13:17:53;9.60;;;8.77;;
6207;SDS011;3137;51.550;7.060;2023-05-10T13:20:20;9.63;;;8.93;;
6207;SDS011;3137;51.550;7.060;2023-05-10T13:22:47;8.83;;;8.20;;
6207;SDS011;3137;51.550;7.060;2023-05-10T13:25:15;10.20;;;8.00;;
6207;SDS011;3137;51.550;7.060;2023-05-10T13:27:42;9.37;;;8.27;;
6207;SDS011;3137;51.550;7.060;2023-05-10T13:30:08;9.67;;;8.03;;
6207;SDS011;3137;51.550;7.060;2023-05-10T13:32:35;8.50;;;7.97;;
6207;SDS011;3137;51.550;7.060;2023-05-10T13:35:02;10.43;;;7.63;;
6207;SDS011;3137;51.550;7.060;2023-05-10T13:37:29;9.03;;;8.00;;
6207;SDS011;3137;51.550;7.060;2023-05-10T13:39:57;8.63;;;7.90;;
6207;SDS011;3137;51.550;7.060;2023-05-10T13:42:23;9.10;;;8.50;;
6207;SDS011;3137;51.550;7.060;2023-05-10T13:44:50;13.60;;;8.13;;
6207;SDS011;3137;51.550;7.060;2023-05-10T13:47:17;9.77;;;8.87;;
6207;SDS011;3137;51.550;7.060;2023-05-10T13:49:43;9.23;;;8.50;;
6207;SDS011;3137;51.550;7.060;2023-05-10T13:52:10;10.43;;;9.63;;
6207;SDS011;3137;51.550;7.060;2023-05-10T13:54:36;14.20;;;9.33;;
6207;SDS011;3137;51.550;7.060;2023-05-10T13:57:04;11.03;;;10.13;;
6207;SDS011;3137;51.550;7.060;2023-05-10T13:59:30;12.60;;;11.37;;
6207;SDS011;3137;51.550;7.060;2023-05-10T14:02:00;16.13;;;12.20;;
6207;SDS011;3137;51.550;7.060;2023-05-10T14:04:28;13.27;;;12.17;;
6207;SDS011;3137;51.550;7.060;2023-05-10T14:06:55;25.53;;;13.63;;
6207;SDS011;3137;51.550;7.060;2023-05-10T14:09:22;15.20;;;13.93;;
6207;SDS011;3137;51.550;7.060;2023-05-10T14:11:49;16.33;;;14.47;;
6207;SDS011;3137;51.550;7.060;2023-05-10T14:14:15;14.93;;;13.50;;
6207;SDS011;3137;51.550;7.060;2023-05-10T14:16:42;16.03;;;13.33;;
6207;SDS011;3137;51.550;7.060;2023-05-10T14:19:10;16.10;;;14.73;;
6207;SDS011;3137;51.550;7.060;2023-05-10T14:21:37;15.10;;;12.93;;
6207;SDS011;3137;51.550;7.060;2023-05-10T14:24:04;11.23;;;10.50;;
6207;SDS011;3137;51.550;7.060;2023-05-10T14:26:30;11.20;;;10.40;;
6207;SDS011;3137;51.550;7.060;2023-05-10T14:28:57;7.70;;;7.20;;
6207;SDS011;3137;51.550;7.060;2023-05-10T14:31:24;9.33;;;8.90;;
6207;SDS011;3137;51.550;7.060;2023-05-10T14:33:52;6.73;;;6.43;;
6207;SDS011;3137;51.550;7.060;2023-05-10T14:36:19;6.73;;;6.40;;
6207;SDS011;3137;51.550;7.060;2023-05-10T14:38:45;7.47;;;6.87;;
6207;SDS011;3137;51.550;7.060;2023-05-10T14:41:11;7.87;;;7.43;;
6207;SDS011;3137;51.550;7.060;2023-05-10T14:43:40;8.23;;;7.67;;
6207;SDS011;3137;51.550;7.060;2023-05-10T14:46:07;8.10;;;7.80;;
6207;SDS011;3137;51.550;7.060;2023-05-10T14:48:33;10.07;;;9.37;;
6207;SDS011;3137;51.550;7.060;2023-05-10T14:51:00;11.07;;;8.67;;
6207;SDS011;3137;51.550;7.060;2023-05-10T14:53:27;8.60;;;8.20;;
6207;SDS011;3137;51.550;7.060;2023-05-10T14:55:54;10.20;;;9.53;;
6207;SDS011;3137;51.550;7.060;2023-05-10T14:58:20;10.33;;;9.43;;
6207;SDS011;3137;51.550;7.060;2023-05-10T15:00:47;10.33;;;9.27;;
6207;SDS011;3137;51.550;7.060;2023-05-10T15:03:13;10.83;;;10.03;;
6207;SDS011;3137;51.550;7.060;2023-05-10T15:05:40;10.43;;;9.73;;
6207;SDS011;3137;51.550;7.060;2023-05-10T15:08:07;11.07;;;10.23;;
6207;SDS011;3137;51.550;7.060;2023-05-10T15:10:33;13.00;;;10.27;;
6207;SDS011;3137;51.550;7.060;2023-05-10T15:13:00;11.77;;;10.73;;
6207;SDS011;3137;51.550;7.060;2023-05-10T15:15:27;11.00;;;10.13;;
6207;SDS011;3137;51.550;7.060;2023-05-10T15:17:53;10.33;;;9.53;;
6207;SDS011;3137;51.550;7.060;2023-05-10T15:20:19;9.13;;;8.67;;
6207;SDS011;3137;51.550;7.060;2023-05-10T15:22:46;7.73;;;7.47;;
6207;SDS011;3137;51.550;7.060;2023-05-10T15:25:12;7.27;;;6.97;;
6207;SDS011;3137;51.550;7.060;2023-05-10T15:27:40;10.10;;;9.07;;
6207;SDS011;3137;51.550;7.060;2023-05-10T15:30:07;12.83;;;9.13;;
6207;SDS011;3137;51.550;7.060;2023-05-10T15:32:33;10.00;;;9.13;;
6207;SDS011;3137;51.550;7.060;2023-05-10T15:35:03;11.53;;;10.60;;
6207;SDS011;3137;51.550;7.060;2023-05-10T15:37:30;10.50;;;9.70;;